• Join FlightAware (Why Join?)
  • Login
  • US Flag 
08:56PM EDT


 

Airport Tracker/Info


-or-


 

Live Flight TrackerFlight Track Log ✈ VOZ1487 ✈ 05-Oct-2013 ✈ YPPH / PER - YBRM / BME

Flight Track Log - Related Links

Times and Time Zones

All times are in EDT time to prevent confusion due to time zone crossing. See the VOZ1487 flight status page for this flight to view local times or setup timezone preferences in your user account.

Time Position Orientation Groundspeed Altitude Reporting Facility
EDT Latitude Longitude Course Direction KTS MPH feet Rate Location/Type
04:36AM -31.9394 115.9653 194° South 148 170  Level FlightAware ADS-B (YPPH / PER)
04:36AM -31.9536 115.9612 194° South 151 174 800 1,800 Climbing FlightAware ADS-B (YPPH / PER)
04:37AM -31.9846 115.9518 194° South 183 211 2,000 1,740 Climbing FlightAware ADS-B (YPPH / PER)
04:37AM -32.0047 115.9466 192° South 211 243 2,700 2,280 Climbing FlightAware ADS-B (YPPH / PER)
04:37AM -32.0212 115.9509 168° South 221 254 3,500 1,920 Climbing FlightAware ADS-B (YPPH / PER)
04:38AM -32.0345 115.9672 134° Southeast 267 307 3,800 1,980 Climbing FlightAware ADS-B (YPPH / PER)
04:38AM -32.0502 116.0330 106° East 300 345 5,500 2,460 Climbing FlightAware ADS-B (YPPH / PER)
04:39AM -32.0575 116.0639 106° East 306 352 6,400 3,000 Climbing FlightAware ADS-B (YPPH / PER)
04:39AM -32.0644 116.0931 106° East 307 353 7,400 3,360 Climbing FlightAware ADS-B (YPPH / PER)
04:39AM -32.0732 116.1304 106° East 307 353 8,700 3,180 Climbing FlightAware ADS-B (YPPH / PER)
04:40AM -32.0807 116.1623 105° East 310 357 9,700 2,640 Climbing FlightAware ADS-B (YPPH / PER)
04:40AM -32.0851 116.1927 100° East 319 367 10,400 1,980 Climbing FlightAware ADS-B (YPPH / PER)
04:40AM -32.0823 116.2138 81° East 332 382 10,700 1,320 Climbing FlightAware ADS-B (YPPH / PER)
04:40AM -32.0756 116.2306 65° Northeast 337 388 10,900 1,380 Climbing FlightAware ADS-B (YPPH / PER)
04:40AM -32.0731 116.2352 56° Northeast 337 388 11,000 2,400 Climbing FlightAware ADS-B (YPPH / PER)
04:41AM -32.0394 116.2774 56° Northeast 337 388 12,300 2,460 Climbing Aus ATC (RADAR)
04:41AM -32.0335 116.2855 56° Northeast 349 402 12,500 3,360 Climbing FlightAware ADS-B (YPPH / PER)
04:42AM -31.9903 116.3395 47° Northeast 327 376 14,800 3,300 Climbing FlightAware ADS-B (YPPH / PER)
04:42AM -31.9590 116.3784 47° Northeast 329 379 16,400 2,040 Climbing FlightAware ADS-B (YPPH / PER)
04:42AM -31.9357 116.4021 41° Northeast 340 391 16,500 420 Climbing FlightAware ADS-B (YPPH / PER)
04:43AM -31.9075 116.4197 28° Northeast 360 414 16,700 1,560 Climbing FlightAware ADS-B (YPPH / PER)
04:43AM -31.8439 116.4541 25° Northeast 373 429 18,100 2,400 Climbing FlightAware ADS-B (YPPH / PER)
04:44AM -31.7976 116.4791 25° Northeast 358 412 19,500 2,340 Climbing FlightAware ADS-B (YPPH / PER)
04:45AM -31.7501 116.5048 25° Northeast 370 426 20,500 1,920 Climbing FlightAware ADS-B (YPPH / PER)
04:45AM -31.7015 116.5309 25° Northeast 376 433 21,500 1,740 Climbing FlightAware ADS-B (YPPH / PER)
04:46AM -31.6570 116.5550 25° Northeast 382 440 22,300 1,620 Climbing FlightAware
04:46AM -31.6370 116.5656 24° Northeast 388 447 22,600 1,620 Climbing FlightAware ADS-B (YPPH / PER)
04:46AM -31.5940 116.5890 25° Northeast 392 451 23,400 1,500 Climbing FlightAware
04:46AM -31.5717 116.6006 24° Northeast 392 451 23,600 1,200 Climbing FlightAware ADS-B (YPPH / PER)
04:47AM -31.5192 116.6287 24° Northeast 406 467 24,200 1,260 Climbing FlightAware ADS-B (YPPH / PER)
04:47AM -31.4669 116.6569 25° Northeast 412 474 24,900 1,500 Climbing FlightAware ADS-B (YPPH / PER)
04:48AM -31.4134 116.6855 25° Northeast 413 475 25,700 1,560 Climbing FlightAware ADS-B (YPPH / PER)
04:49AM -31.3434 116.7229 25° Northeast 422 486 26,700 1,320 Climbing FlightAware ADS-B (YPPH / PER)
04:49AM -31.2887 116.7521 25° Northeast 426 490 27,300 900 Climbing FlightAware ADS-B (YPPH / PER)
04:50AM -31.2313 116.7827 25° Northeast 428 493 27,700 960 Climbing FlightAware ADS-B (YPPH / PER)
04:50AM -31.1760 116.8123 25° Northeast 429 494 28,300 1,260 Climbing FlightAware ADS-B (YPPH / PER)
04:51AM -31.1207 116.8417 24° Northeast 428 493 29,000 1,200 Climbing FlightAware ADS-B (YPPH / PER)
04:51AM -31.0658 116.8709 24° Northeast 441 507 29,500 780 Climbing FlightAware ADS-B (YPPH / PER)
04:52AM -31.0092 116.9008 24° Northeast 440 506 29,800 780 Climbing FlightAware ADS-B (YPPH / PER)
04:52AM -30.9528 116.9308 24° Northeast 443 510 30,300 900 Climbing FlightAware ADS-B (YPPH / PER)
04:53AM -30.8951 116.9613 24° Northeast 448 516 30,700 900 Climbing FlightAware ADS-B (YPPH / PER)
04:53AM -30.8374 116.9918 24° Northeast 456 525 31,200 660 Climbing FlightAware ADS-B (YPPH / PER)
04:54AM -30.7798 117.0223 24° Northeast 464 534 31,400 600 Climbing FlightAware ADS-B (YPPH / PER)
04:54AM -30.7206 117.0536 24° Northeast 462 532 31,800 660 Climbing FlightAware ADS-B (YPPH / PER)
04:55AM -30.6609 117.0849 24° Northeast 464 534 32,100 780 Climbing FlightAware ADS-B (YPPH / PER)
04:55AM -30.6006 117.1165 24° Northeast 465 535 32,600 900 Climbing FlightAware ADS-B (YPPH / PER)
04:56AM -30.5419 117.1474 24° Northeast 463 533 33,000 900 Climbing FlightAware ADS-B (YPPH / PER)
04:56AM -30.4820 117.1789 24° Northeast 463 533 33,500 960 Climbing FlightAware ADS-B (YPPH / PER)
04:57AM -30.4223 117.2103 24° Northeast 460 529 34,000 1,080 Climbing FlightAware ADS-B (YPPH / PER)
04:57AM -30.3639 117.2409 24° Northeast 461 531 34,600 840 Climbing FlightAware ADS-B (YPPH / PER)
04:58AM -30.3021 117.2731 24° Northeast 462 532 34,900 480 Climbing FlightAware ADS-B (YPPH / PER)
04:58AM -30.2426 117.3040 24° Northeast 460 529 35,100 360 Climbing FlightAware ADS-B (YPPH / PER)
04:59AM -30.1829 117.3350 24° Northeast 473 544 35,300 480 Climbing FlightAware ADS-B (YPPH / PER)
04:59AM -30.1229 117.3662 24° Northeast 474 545 35,600 600 Climbing FlightAware ADS-B (YPPH / PER)
05:00AM -30.0429 117.4078 24° Northeast 474 545 36,000 600 Climbing FlightAware ADS-B (YPPH / PER)
05:00AM -29.9832 117.4388 24° Northeast 465 535 36,300 660 Climbing FlightAware ADS-B (YPPH / PER)
05:01AM -29.9231 117.4699 24° Northeast 462 532 36,700 660 Climbing FlightAware ADS-B (YPPH / PER)
05:01AM -29.8641 117.5005 24° Northeast 461 531 37,000 300 Climbing FlightAware ADS-B (YPPH / PER)
05:02AM -29.8046 117.5312 24° Northeast 475 547 37,000  Level FlightAware ADS-B (YPPH / PER)
05:02AM -29.7437 117.5626 24° Northeast 474 545 37,000  Level FlightAware ADS-B (YPPH / PER)
05:03AM -29.6788 117.5959 24° Northeast 477 549 37,000  Level FlightAware ADS-B (YPPH / PER)
05:03AM -29.5987 117.6370 24° Northeast 477 549 37,000  Level FlightAware ADS-B (YPPH / PER)
05:04AM -29.5372 117.6686 24° Northeast 477 549 37,000  Level FlightAware ADS-B (YPPH / PER)
05:04AM -29.4760 117.6999 24° Northeast 477 549 37,000  Level FlightAware ADS-B (YPPH / PER)
05:05AM -29.4142 117.7316 24° Northeast 479 551 37,000  Level FlightAware ADS-B (YPPH / PER)
05:05AM -29.3529 117.7631 24° Northeast 480 552 37,000  Level FlightAware ADS-B (YPPH / PER)
05:06AM -29.2910 117.7948 24° Northeast 479 551 37,000  Level FlightAware ADS-B (YPPH / PER)
05:06AM -29.2290 117.8265 24° Northeast 477 549 37,000  Level FlightAware ADS-B (YPPH / PER)
05:07AM -29.1677 117.8577 24° Northeast 480 552 37,000  Level FlightAware ADS-B (YPPH / PER)
05:07AM -29.1069 117.8887 24° Northeast 480 552 37,000  Level FlightAware ADS-B (YPPH / PER)
05:08AM -29.0327 117.9224 24° Northeast 481 554 37,000  Level Aus ATC (RADAR)
05:08AM -29.0253 117.9302 24° Northeast 479 551 37,000  Level FlightAware ADS-B (YPPH / PER)
05:09AM -28.9657 117.9604 24° Northeast 476 548 37,000  Level FlightAware ADS-B (YPPH / PER)
05:09AM -28.9051 117.9912 24° Northeast 474 545 37,000  Level FlightAware ADS-B (YPPH / PER)
05:10AM -28.8444 118.0218 24° Northeast 474 545 37,000  Level FlightAware ADS-B (YPPH / PER)
05:10AM -28.7845 118.0521 24° Northeast 475 547 37,000  Level FlightAware ADS-B (YPPH / PER)
05:11AM -28.6924 118.0984 24° Northeast 477 549 37,000  Level FlightAware ADS-B (YPPH / PER)
05:12AM -28.6610 118.1150 25° Northeast 474 545 37,000  Level FlightAware
05:12AM -28.6000 118.1460 24° Northeast 474 545 37,000  Level FlightAware
05:13AM -28.5370 118.1780 24° Northeast 474 545 37,000  Level FlightAware
05:13AM -28.4750 118.2090 24° Northeast 474 545 37,000  Level FlightAware
05:14AM -28.4140 118.2400 24° Northeast 474 545 37,000  Level FlightAware
05:15AM -28.3530 118.2710 24° Northeast 474 545 37,000  Level FlightAware
05:15AM -28.2920 118.3020 24° Northeast 474 545 37,000  Level FlightAware
05:16AM -28.2300 118.3330 24° Northeast 474 545 37,000  Level FlightAware
05:16AM -28.1690 118.3640 24° Northeast 474 545 37,000  Level FlightAware
05:17AM -28.1080 118.3950 24° Northeast 474 545 37,000  Level FlightAware
05:18AM -28.0460 118.4260 24° Northeast 474 545 37,000  Level FlightAware
05:18AM -27.9880 118.4550 24° Northeast 474 545 37,000  Level FlightAware
05:19AM -27.9250 118.4870 24° Northeast 474 545 37,000  Level FlightAware
05:19AM -27.6944 118.5609 193° South 37,000  Level Aus ATC (Calculated)
05:19AM -27.8640 118.5180 24° Northeast 474 545 37,000  Level FlightAware
05:22AM -27.4154 118.6868 22° Northeast  Level FlightAware Approximate
05:22AM -27.3445 118.7187 21° North 37,000  Level Aus ATC (Calculated)
05:22AM -27.2716 118.7514 21° North 37,000  Level Aus ATC (Calculated)
05:24AM -27.1153 118.8214 22° Northeast  Level FlightAware Approximate
05:25AM -27.0036 118.8714 22° Northeast  Level FlightAware Approximate
05:26AM -26.8919 118.9212 22° Northeast  Level FlightAware Approximate
05:27AM -26.7802 118.9709 22° Northeast  Level FlightAware Approximate
05:27AM -26.6856 119.0041 21° North 37,000  Level Aus ATC (Calculated)
05:29AM -26.8856 118.9386 196° South  Level FlightAware Approximate
05:30AM -26.7702 118.9764 16° North  Level FlightAware Approximate
05:31AM -26.6663 119.0196 21° North  Level FlightAware Approximate
05:32AM -26.5539 119.0673 21° North  Level FlightAware Approximate
05:32AM -26.0809 119.2619 22° Northeast 37,000  Level Aus ATC (Calculated)
05:34AM -25.8787 119.3475 21° North  Level FlightAware Approximate
05:34AM -25.7920 119.3840 27° Northeast 37,000  Level Aus ATC (Calculated)
05:35AM -25.7454 119.4105 21° North 455 524 37,000  Level Aus ATC (RADAR)
05:36AM -25.6756 119.4374 19° North 455 524 37,000  Level Aus ATC (RADAR)
05:36AM -25.5726 119.4809 21° North 467 537 37,000  Level Aus ATC (RADAR)
05:37AM -25.5413 119.4949 22° Northeast 471 542 37,000  Level Aus ATC (RADAR)
05:37AM -25.4706 119.5233 20° North 467 537 37,000  Level Aus ATC (RADAR)
05:38AM -25.3352 119.5805 21° North 476 548 37,000 -120 Level Aus ATC (RADAR)
05:39AM -25.3053 119.5921 19° North 470 541 36,900 -180 Descending Aus ATC (RADAR)
05:39AM -25.2445 119.6173 21° North 468 539 36,900  Level Aus ATC (RADAR)
05:40AM -25.1327 119.6633 20° North 467 537 36,900  Level Aus ATC (RADAR)
05:40AM -25.1131 119.6706 19° North 463 533 36,900  Level Aus ATC (RADAR)
05:41AM -25.0416 119.7004 21° North 467 537 36,900  Level Aus ATC (RADAR)
05:42AM -24.9381 119.7438 21° North 473 544 36,900  Level Aus ATC (RADAR)
05:42AM -24.9173 119.7524 21° North 474 545 36,900  Level Aus ATC (RADAR)
05:42AM -24.8477 119.7801 20° North 465 535 36,900  Level Aus ATC (RADAR)
05:43AM -24.7143 119.8351 21° North 469 540 36,900  Level Aus ATC (RADAR)
05:44AM -24.6946 119.8428 20° North 467 537 36,900  Level Aus ATC (RADAR)
05:44AM -24.6221 119.8731 21° North 473 544 36,900  Level Aus ATC (RADAR)
05:45AM -24.5216 119.9133 20° North 465 535 36,900  Level Aus ATC (RADAR)
05:45AM -24.4896 119.9266 21° North 473 544 36,900  Level Aus ATC (RADAR)
05:46AM -24.4186 119.9552 20° North 470 541 36,900  Level Aus ATC (RADAR)
05:47AM -24.3157 119.9970 20° North 473 544 36,900  Level Aus ATC (RADAR)
05:47AM -24.2847 120.0097 20° North 472 543 36,900  Level Aus ATC (RADAR)
05:47AM -24.2236 120.0343 20° North 470 541 36,900  Level Aus ATC (RADAR)
05:48AM -24.1202 120.0764 20° North 474 545 36,900  Level Aus ATC (RADAR)
05:49AM -24.0378 120.1097 20° North 473 544 36,900  Level Aus ATC (RADAR)
05:49AM -23.9667 120.1384 20° North 470 541 36,900  Level Aus ATC (RADAR)
05:50AM -23.8638 120.1800 20° North 472 543 36,900  Level Aus ATC (RADAR)
05:51AM -23.8242 120.1961 20° North 467 537 36,900  Level Aus ATC (RADAR)
05:51AM -23.7484 120.2259 20° North 485 558 36,900  Level Aus ATC (RADAR)
05:52AM -23.6449 120.2671 20° North 504 580 36,900  Level Aus ATC (RADAR)
05:53AM -23.5785 120.2949 21° North 463 533 36,900  Level Aus ATC (RADAR)
05:54AM -23.4656 120.3403 20° North 471 542 36,900  Level Aus ATC (RADAR)
05:54AM -23.4120 120.3611 20° North 478 550 36,900  Level Aus ATC (RADAR)
05:54AM -23.3523 120.3856 21° North 468 539 36,900  Level Aus ATC (RADAR)
05:55AM -23.2462 120.4268 20° North 480 552 36,900  Level Aus ATC (RADAR)
05:56AM -23.1743 120.4554 20° North 475 547 36,900  Level Aus ATC (RADAR)
05:57AM -23.0723 120.4963 20° North 470 541 36,900  Level Aus ATC (RADAR)
05:57AM -23.0313 120.5126 20° North 468 539 36,900  Level Aus ATC (RADAR)
05:58AM -22.9591 120.5412 20° North 471 542 36,900  Level Aus ATC (RADAR)
05:59AM -22.8470 120.5862 20° North 468 539 36,900  Level Aus ATC (RADAR)
05:59AM -22.8155 120.5982 19° North 469 540 36,900  Level Aus ATC (RADAR)
05:59AM -22.7542 120.6227 20° North 469 540 36,900 60 Level Aus ATC (RADAR)
06:00AM -22.6519 120.6634 20° North 469 540 37,000 60 Climbing Aus ATC (RADAR)
06:00AM -22.6218 120.6758 21° North 467 537 37,000  Level Aus ATC (RADAR)
06:01AM -22.5596 120.7000 20° North 469 540 37,000  Level Aus ATC (RADAR)
06:02AM -22.4555 120.7404 20° North 474 545 37,000  Level Aus ATC (RADAR)
06:02AM -22.4038 120.7608 20° North 474 545 37,000  Level Aus ATC (RADAR)
06:03AM -22.3322 120.7893 20° North 471 542 37,000  Level Aus ATC (RADAR)
06:04AM -22.2181 120.8343 20° North 471 542 37,000  Level Aus ATC (RADAR)
06:04AM -22.1862 120.8462 19° North 474 545 37,000  Level Aus ATC (RADAR)
06:04AM -22.1135 120.8744 20° North 473 544 37,000 -120 Level Aus ATC (RADAR)
06:05AM -22.0119 120.9152 20° North 468 539 36,900 -120 Descending Aus ATC (RADAR)
06:06AM -21.9811 120.9273 20° North 468 539 36,900  Level Aus ATC (RADAR)
06:06AM -21.9195 120.9514 20° North 468 539 36,900  Level Aus ATC (RADAR)
06:07AM -21.8156 120.9910 19° North 470 541 36,900  Level Aus ATC (RADAR)
06:07AM -21.7742 121.0068 20° North 471 542 36,900  Level Aus ATC (RADAR)
06:08AM -21.7023 121.0348 20° North 470 541 36,900 120 Level Aus ATC (RADAR)
06:08AM -21.6940 121.0410 20° North 471 542 37,000 120 Climbing FlightAware
06:09AM -21.6280 121.0660 19° North 471 542 37,000  Level FlightAware
06:09AM -21.5630 121.0920 20° North 471 542 37,000  Level FlightAware
06:10AM -21.5010 121.1160 20° North 471 542 37,000  Level FlightAware
06:10AM -21.4380 121.1410 20° North 471 542 37,000 -120 Level FlightAware
06:11AM -21.3263 121.1809 20° North 461 531 36,900  Descending Aus ATC (RADAR)
06:11AM -21.3730 121.1660 20° North 471 542 37,000 120 Climbing FlightAware
06:12AM -21.3090 121.1910 20° North 471 542 37,000  Level FlightAware
06:12AM -21.2460 121.2150 20° North 471 542 37,000  Level FlightAware
06:13AM -21.1840 121.2400 21° North 471 542 37,000  Level FlightAware
06:13AM -21.1210 121.2640 20° North 471 542 37,000  Level FlightAware
06:14AM -20.9857 121.3135 198° South 37,000  Level Aus ATC (Calculated)
06:14AM -21.0580 121.2890 20° North 471 542 37,000  Level FlightAware
06:15AM -20.9960 121.3130 20° North 471 542 37,000  Level FlightAware
06:15AM -20.9330 121.3380 20° North 471 542 37,000  Level FlightAware
06:16AM -20.8700 121.3620 20° North 471 542 37,000  Level FlightAware
06:16AM -20.8080 121.3870 21° North 471 542 37,000  Level FlightAware
06:17AM -20.7450 121.4110 20° North 471 542 37,000  Level FlightAware
06:18AM -20.6820 121.4350 20° North 471 542 37,000  Level FlightAware
06:19AM -20.3459 121.5610 20° North 37,000  Level Aus ATC (Calculated)
06:20AM -20.1278 121.6449 282° West 37,000  Level Aus ATC (Calculated)
06:21AM -20.1235 121.6240 15° North  Level Estimated
06:21AM -19.9694 121.7053 326° Northwest 9,300  Level Aus ATC (Calculated)
06:22AM -19.9517 121.6928 14° North  Level Estimated
06:23AM -19.8420 121.7388 14° North  Level Estimated
06:23AM -19.7780 121.7781 13° North 9,300  Level Aus ATC (Calculated)
06:25AM -19.6012 121.8223 13° North  Level Estimated
06:26AM -19.4833 121.8517 13° North  Level Estimated
06:26AM -19.5268 121.8734 20° North 9,300  Level Aus ATC (Calculated)
06:27AM -19.3226 121.9506 280° West 9,300  Level Aus ATC (Calculated)
06:28AM -19.3176 121.9212 12° North  Level Estimated
06:29AM -19.1918 121.9775 11° North  Level Estimated
06:30AM -19.0729 122.0019 11° North  Level Estimated
06:30AM -19.1014 122.0341 20° North 9,300  Level Aus ATC (Calculated)
06:30AM -19.0184 122.0653 20° North 9,300  Level Aus ATC (Calculated)
06:31AM -18.9458 122.0926 356° North 9,300  Level Aus ATC (Calculated)
06:32AM -18.8766 122.0874 North  Level Estimated
06:32AM -18.8823 122.1165 20° North 9,300  Level Aus ATC (Calculated)
06:33AM -18.7155 122.1791 North 9,300  Level Aus ATC (Calculated)
06:35AM -18.5725 122.1889 North  Level Estimated
06:36AM -18.4516 122.1971 North  Level Estimated
06:36AM -18.4375 122.2831 354° North 500  Level Aus ATC (Calculated)
06:38AM -18.2044 122.2587 354° North  Level Estimated
06:38AM -18.2533 122.2651 354° North 500  Level Aus ATC (Calculated)
06:39AM -18.0839 122.2462 354° North  Level Estimated
06:40AM -18.1288 122.2516 354° North  Level Estimated
06:41AM -18.0083 122.2385 354° North  Level Estimated
06:41AM -18.0077 122.2413 360° North 500  Level Aus ATC (Calculated)
06:41AM -18.0077 122.2413 360° North 500  Level Aus ATC (Calculated)
06:41AM -18.0077 122.2413 352° North 500  Level Aus ATC (Calculated)
06:42AM -17.9447 122.2317 354° North  Level Estimated
06:43AM -17.9447 122.2317 352° North  Level Estimated
06:44AM -17.9447 122.2317 235° Southwest  Level Estimated
06:45AM -17.9447 122.2317 352° North  Level Estimated